Time;durP1;ratioP1;P1;durP2;ratioP2;P2;SDS_P1;SDS_P2;PMS_P1;PMS_P2;Temp;Humidity;BMP_temperature;BMP_pressure;BME280_temperature;BME280_humidity;BME280_pressure;Samples;Min_cycle;Max_cycle;Signal;HPM_P1;HPM_P2
2024/01/16 00:02:21;;;;;;;0.00;0.00;;;;;;;;;;5076792;28;20055;-83
2024/01/16 00:04:47;;;;;;;0.00;0.00;;;;;;;;;;5082714;28;20027;-82
2024/01/16 00:07:13;;;;;;;0.00;0.00;;;;;;;;;;5080432;28;20147;-83
2024/01/16 00:09:38;;;;;;;0.00;0.00;;;;;;;;;;5115308;28;20031;-83
2024/01/16 00:12:04;;;;;;;0.00;0.00;;;;;;;;;;5077266;28;20119;-83
2024/01/16 00:14:29;;;;;;;0.00;0.00;;;;;;;;;;5060409;28;20020;-83
2024/01/16 00:16:56;;;;;;;0.00;0.00;;;;;;;;;;5060034;28;20059;-82
2024/01/16 00:19:22;;;;;;;0.00;0.00;;;;;;;;;;5078131;28;20064;-83
2024/01/16 00:21:48;;;;;;;0.00;0.00;;;;;;;;;;5040131;28;20081;-83
2024/01/16 00:24:14;;;;;;;0.00;0.00;;;;;;;;;;5039763;28;20436;-83
2024/01/16 00:26:39;;;;;;;0.00;0.00;;;;;;;;;;5048569;28;20059;-82
2024/01/16 00:29:05;;;;;;;0.00;0.00;;;;;;;;;;5040088;28;20071;-83
2024/01/16 00:31:30;;;;;;;0.00;0.00;;;;;;;;;;5023721;28;20024;-82
2024/01/16 00:33:56;;;;;;;0.00;0.00;;;;;;;;;;5055886;28;20365;-82
2024/01/16 00:36:21;;;;;;;0.00;0.00;;;;;;;;;;5076262;28;20028;-82
2024/01/16 00:38:47;;;;;;;0.00;0.00;;;;;;;;;;5094342;28;20055;-83
2024/01/16 00:41:14;;;;;;;0.00;0.00;;;;;;;;;;5093497;28;20127;-83
2024/01/16 00:43:40;;;;;;;0.00;0.00;;;;;;;;;;5059822;28;20484;-83
2024/01/16 00:46:06;;;;;;;0.00;0.00;;;;;;;;;;5076013;28;20028;-82
2024/01/16 00:48:31;;;;;;;0.00;0.00;;;;;;;;;;5094023;28;20032;-82
2024/01/16 00:50:57;;;;;;;0.00;0.00;;;;;;;;;;5076106;28;20024;-82
2024/01/16 00:53:22;;;;;;;0.00;0.00;;;;;;;;;;5076000;28;20036;-83
2024/01/16 00:55:48;;;;;;;0.00;0.00;;;;;;;;;;5075852;28;20176;-83
2024/01/16 00:58:13;;;;;;;0.00;0.00;;;;;;;;;;5059367;28;20035;-82
2024/01/16 01:00:39;;;;;;;0.00;0.00;;;;;;;;;;5059388;28;20028;-83
2024/01/16 01:03:05;;;;;;;0.00;0.00;;;;;;;;;;5076199;28;20027;-83
2024/01/16 01:05:30;;;;;;;0.00;0.00;;;;;;;;;;5106142;28;20108;-82
2024/01/16 01:07:56;;;;;;;0.00;0.00;;;;;;;;;;5096569;28;20100;-83
2024/01/16 01:10:21;;;;;;;0.00;0.00;;;;;;;;;;5062520;28;20391;-83
2024/01/16 01:12:47;;;;;;;0.00;0.00;;;;;;;;;;5053053;28;20020;-83
2024/01/16 01:15:13;;;;;;;0.00;0.00;;;;;;;;;;5075652;28;20440;-83
2024/01/16 01:17:39;;;;;;;0.00;0.00;;;;;;;;;;5059541;28;20063;-83
2024/01/16 01:20:06;;;;;;;0.00;0.00;;;;;;;;;;5055159;28;20063;-82
2024/01/16 01:22:32;;;;;;;0.00;0.00;;;;;;;;;;5058704;28;20043;-83
2024/01/16 01:24:57;;;;;;;0.00;0.00;;;;;;;;;;5058635;28;20024;-83
2024/01/16 01:27:23;;;;;;;0.00;0.00;;;;;;;;;;5092874;28;20444;-83
2024/01/16 01:29:48;;;;;;;0.00;0.00;;;;;;;;;;5058946;28;20358;-83
2024/01/16 01:32:14;;;;;;;0.00;0.00;;;;;;;;;;5075384;28;20433;-82
2024/01/16 01:34:41;;;;;;;0.00;0.00;;;;;;;;;;5073699;28;20034;-83
2024/01/16 01:37:07;;;;;;;0.00;0.00;;;;;;;;;;5093140;28;20426;-83
2024/01/16 01:39:32;;;;;;;0.00;0.00;;;;;;;;;;5074876;28;20043;-82
2024/01/16 01:41:58;;;;;;;0.00;0.00;;;;;;;;;;5093125;28;20038;-82
2024/01/16 01:44:24;;;;;;;0.00;0.00;;;;;;;;;;5041745;28;20040;-82
2024/01/16 01:46:50;;;;;;;0.00;0.00;;;;;;;;;;5042140;28;20032;-82
2024/01/16 01:49:15;;;;;;;0.00;0.00;;;;;;;;;;5058571;28;20457;-82
2024/01/16 01:51:41;;;;;;;0.00;0.00;;;;;;;;;;5058624;28;20032;-82
2024/01/16 01:54:07;;;;;;;0.00;0.00;;;;;;;;;;5062145;28;20032;-82
2024/01/16 01:56:32;;;;;;;0.00;0.00;;;;;;;;;;5079350;28;20036;-82
2024/01/16 01:59:01;;;;;;;0.00;0.00;;;;;;;;;;5079322;28;20560;-82
2024/01/16 02:01:28;;;;;;;0.00;0.00;;;;;;;;;;5063839;28;20035;-82
2024/01/16 02:03:53;;;;;;;0.00;0.00;;;;;;;;;;5079352;28;20043;-81
2024/01/16 02:06:19;;;;;;;0.00;0.00;;;;;;;;;;5079343;28;20024;-82
2024/01/16 02:08:44;;;;;;;0.00;0.00;;;;;;;;;;5062314;28;20046;-82
2024/01/16 02:11:10;;;;;;;0.00;0.00;;;;;;;;;;5062799;28;20031;-82
2024/01/16 02:13:36;;;;;;;0.00;0.00;;;;;;;;;;5078743;28;20358;-82
2024/01/16 02:16:03;;;;;;;0.00;0.00;;;;;;;;;;5077627;28;20028;-82
2024/01/16 02:18:29;;;;;;;0.00;0.00;;;;;;;;;;5045939;28;20047;-83
2024/01/16 02:21:00;;;;;;;0.00;0.00;;;;;;;;;;5073075;28;20425;-83
2024/01/16 02:23:29;;;;;;;0.00;0.00;;;;;;;;;;5082133;28;20145;-82
2024/01/16 02:25:54;;;;;;;0.00;0.00;;;;;;;;;;5081920;28;20066;-83
2024/01/16 02:28:20;;;;;;;0.00;0.00;;;;;;;;;;5082426;28;20446;-84
2024/01/16 02:30:48;;;;;;;0.00;0.00;;;;;;;;;;5082873;28;20173;-84
2024/01/16 02:33:14;;;;;;;0.00;0.00;;;;;;;;;;5062380;28;20064;-83
2024/01/16 02:35:39;;;;;;;0.00;0.00;;;;;;;;;;5061313;28;20044;-83
2024/01/16 02:38:05;;;;;;;0.00;0.00;;;;;;;;;;5073900;28;20381;-83
2024/01/16 02:40:30;;;;;;;0.00;0.00;;;;;;;;;;5077703;28;20043;-83
2024/01/16 02:42:56;;;;;;;0.00;0.00;;;;;;;;;;5096237;28;20067;-83
2024/01/16 02:45:22;;;;;;;0.00;0.00;;;;;;;;;;5077707;28;20120;-83
2024/01/16 02:47:47;;;;;;;0.00;0.00;;;;;;;;;;5044823;28;20089;-83
2024/01/16 02:50:13;;;;;;;0.00;0.00;;;;;;;;;;5061185;28;20032;-83
2024/01/16 02:52:39;;;;;;;0.00;0.00;;;;;;;;;;5078007;28;20028;-83
2024/01/16 02:55:05;;;;;;;0.00;0.00;;;;;;;;;;5061089;28;20067;-84
2024/01/16 02:57:30;;;;;;;0.00;0.00;;;;;;;;;;5061340;28;20048;-84
2024/01/16 02:59:56;;;;;;;0.00;0.00;;;;;;;;;;5060856;28;20432;-84
2024/01/16 03:02:23;;;;;;;0.00;0.00;;;;;;;;;;5061015;28;20124;-82
2024/01/16 03:04:49;;;;;;;0.00;0.00;;;;;;;;;;5077387;28;20097;-83
2024/01/16 03:07:14;;;;;;;0.00;0.00;;;;;;;;;;5077584;28;21344;-83
2024/01/16 03:09:40;;;;;;;0.00;0.00;;;;;;;;;;5095147;28;20035;-83
2024/01/16 03:12:05;;;;;;;0.00;0.00;;;;;;;;;;5044248;28;20371;-83
2024/01/16 03:14:34;;;;;;;0.00;0.00;;;;;;;;;;5044535;28;20092;-83
2024/01/16 03:17:01;;;;;;;0.00;0.00;;;;;;;;;;5067258;28;20027;-83
2024/01/16 03:19:27;;;;;;;0.00;0.00;;;;;;;;;;5064168;28;20055;-83
2024/01/16 03:21:53;;;;;;;0.00;0.00;;;;;;;;;;5078731;28;20450;-83
2024/01/16 03:24:19;;;;;;;0.00;0.00;;;;;;;;;;5061139;28;20032;-83
2024/01/16 03:26:45;;;;;;;0.00;0.00;;;;;;;;;;5077508;28;20060;-83
2024/01/16 03:29:12;;;;;;;0.00;0.00;;;;;;;;;;5077526;28;20047;-82
2024/01/16 03:31:37;;;;;;;0.00;0.00;;;;;;;;;;5060511;28;20024;-83
2024/01/16 03:34:03;;;;;;;0.00;0.00;;;;;;;;;;5056368;28;20024;-84
2024/01/16 03:36:28;;;;;;;0.00;0.00;;;;;;;;;;5041063;28;20043;-84
2024/01/16 03:38:54;;;;;;;0.00;0.00;;;;;;;;;;5078355;28;20441;-83
2024/01/16 03:41:19;;;;;;;0.00;0.00;;;;;;;;;;5077062;28;20452;-83
2024/01/16 03:43:45;;;;;;;0.00;0.00;;;;;;;;;;5060299;28;20130;-83
2024/01/16 03:46:11;;;;;;;0.00;0.00;;;;;;;;;;5059586;28;20135;-83
2024/01/16 03:48:37;;;;;;;0.00;0.00;;;;;;;;;;5076449;28;20051;-83
2024/01/16 03:51:02;;;;;;;0.00;0.00;;;;;;;;;;5076836;28;20117;-83
2024/01/16 03:53:28;;;;;;;0.00;0.00;;;;;;;;;;5076630;28;20369;-84
2024/01/16 03:55:54;;;;;;;0.00;0.00;;;;;;;;;;5059741;28;20142;-84
2024/01/16 03:58:19;;;;;;;0.00;0.00;;;;;;;;;;5076677;28;20027;-84
2024/01/16 04:00:46;;;;;;;0.00;0.00;;;;;;;;;;5094529;28;20020;-84
2024/01/16 04:03:13;;;;;;;0.00;0.00;;;;;;;;;;5076465;28;20028;-84
2024/01/16 04:05:38;;;;;;;0.00;0.00;;;;;;;;;;5060228;28;20366;-84
2024/01/16 04:08:04;;;;;;;0.00;0.00;;;;;;;;;;5059955;28;20024;-84
2024/01/16 04:10:32;;;;;;;0.00;0.00;;;;;;;;;;5076471;28;20024;-84
2024/01/16 04:13:01;;;;;;;0.00;0.00;;;;;;;;;;5060471;28;20036;-84
2024/01/16 04:15:27;;;;;;;0.00;0.00;;;;;;;;;;5075916;28;20135;-84
2024/01/16 04:17:52;;;;;;;0.00;0.00;;;;;;;;;;5058348;28;20119;-84
2024/01/16 04:20:18;;;;;;;0.00;0.00;;;;;;;;;;5065209;28;20407;-84
2024/01/16 04:22:46;;;;;;;0.00;0.00;;;;;;;;;;5079722;28;20055;-84
2024/01/16 04:25:12;;;;;;;0.00;0.00;;;;;;;;;;5079900;28;20027;-84
2024/01/16 04:27:37;;;;;;;0.00;0.00;;;;;;;;;;5079748;28;20030;-84
2024/01/16 04:30:04;;;;;;;0.00;0.00;;;;;;;;;;5096590;28;20094;-84
2024/01/16 04:32:29;;;;;;;0.00;0.00;;;;;;;;;;5096591;28;20023;-84
2024/01/16 04:34:55;;;;;;;0.00;0.00;;;;;;;;;;5062817;28;20095;-85
2024/01/16 04:37:20;;;;;;;0.00;0.00;;;;;;;;;;5078538;28;20357;-84
2024/01/16 04:39:46;;;;;;;0.00;0.00;;;;;;;;;;5061210;28;20453;-84
2024/01/16 04:42:11;;;;;;;0.00;0.00;;;;;;;;;;5056733;28;20028;-84
2024/01/16 04:44:37;;;;;;;0.00;0.00;;;;;;;;;;5095484;28;20407;-84
2024/01/16 04:47:02;;;;;;;0.00;0.00;;;;;;;;;;5062352;28;20042;-84
2024/01/16 04:49:28;;;;;;;0.00;0.00;;;;;;;;;;5063549;28;20038;-83
2024/01/16 04:51:53;;;;;;;0.00;0.00;;;;;;;;;;5079539;28;20447;-84
2024/01/16 04:54:19;;;;;;;0.00;0.00;;;;;;;;;;5079049;28;20039;-84
2024/01/16 04:59:30;;;;;;;0.00;0.00;;;;;;;;;;5099430;28;20509;-84
2024/01/16 05:01:56;;;;;;;0.00;0.00;;;;;;;;;;5079511;28;20454;-82
2024/01/16 05:04:24;;;;;;;0.00;0.00;;;;;;;;;;5079255;28;20024;-84
2024/01/16 05:06:51;;;;;;;0.00;0.00;;;;;;;;;;5079414;28;20122;-84
2024/01/16 05:09:19;;;;;;;0.00;0.00;;;;;;;;;;5079442;28;20110;-85
2024/01/16 05:11:45;;;;;;;0.00;0.00;;;;;;;;;;5062637;28;20020;-83
2024/01/16 05:14:10;;;;;;;0.00;0.00;;;;;;;;;;5058507;28;20039;-83
2024/01/16 05:16:36;;;;;;;0.00;0.00;;;;;;;;;;5074924;28;20024;-82
2024/01/16 05:19:02;;;;;;;0.00;0.00;;;;;;;;;;5075499;28;20082;-83
2024/01/16 05:21:28;;;;;;;0.00;0.00;;;;;;;;;;5074285;28;20114;-82
2024/01/16 05:23:54;;;;;;;0.00;0.00;;;;;;;;;;5093301;28;20024;-83
2024/01/16 05:26:19;;;;;;;0.00;0.00;;;;;;;;;;5093159;28;20035;-82
2024/01/16 05:28:45;;;;;;;0.00;0.00;;;;;;;;;;5058249;28;20026;-81
2024/01/16 05:31:10;;;;;;;0.00;0.00;;;;;;;;;;5058187;28;20031;-81
2024/01/16 05:33:36;;;;;;;0.00;0.00;;;;;;;;;;5075584;28;20028;-82
2024/01/16 05:36:02;;;;;;;0.00;0.00;;;;;;;;;;5072360;28;20445;-82
2024/01/16 05:38:27;;;;;;;0.00;0.00;;;;;;;;;;5053772;28;20025;-84
2024/01/16 05:40:53;;;;;;;0.00;0.00;;;;;;;;;;5038233;28;20388;-88
2024/01/16 05:43:19;;;;;;;0.00;0.00;;;;;;;;;;5062330;28;20040;-88
2024/01/16 05:45:45;;;;;;;0.00;0.00;;;;;;;;;;5056798;28;20055;-84
2024/01/16 05:48:11;;;;;;;0.00;0.00;;;;;;;;;;5042273;28;20028;-87
2024/01/16 05:50:36;;;;;;;0.00;0.00;;;;;;;;;;5054911;28;20086;-82
2024/01/16 05:53:02;;;;;;;0.00;0.00;;;;;;;;;;5059228;28;20021;-82
2024/01/16 05:55:31;;;;;;;0.00;0.00;;;;;;;;;;5059676;28;20073;-82
2024/01/16 05:58:39;;;;;;;0.00;0.00;;;;;;;;;;5081594;28;20168;-82
2024/01/16 06:01:39;;;;;;;0.00;0.00;;;;;;;;;;5070767;28;20101;-82
2024/01/16 06:04:06;;;;;;;0.00;0.00;;;;;;;;;;5056522;28;20118;-81
2024/01/16 06:06:47;;;;;;;0.00;0.00;;;;;;;;;;5075700;28;20032;-86
2024/01/16 06:09:21;;;;;;;0.00;0.00;;;;;;;;;;5079237;28;20054;-79
2024/01/16 06:18:03;;;;;;;0.00;0.00;;;;;;;;;;5185465;22;20056;-82
2024/01/16 06:20:29;;;;;;;0.00;0.00;;;;;;;;;;5055933;28;20032;-79
2024/01/16 06:22:54;;;;;;;0.00;0.00;;;;;;;;;;5089561;28;20012;-81
2024/01/16 06:25:20;;;;;;;0.00;0.00;;;;;;;;;;5087670;28;20028;-81
2024/01/16 06:27:57;;;;;;;0.00;0.00;;;;;;;;;;5087142;28;20040;-80
2024/01/16 06:30:23;;;;;;;0.00;0.00;;;;;;;;;;5087519;28;20039;-81
2024/01/16 06:32:49;;;;;;;0.00;0.00;;;;;;;;;;5077225;28;20024;-81
2024/01/16 06:35:16;;;;;;;0.00;0.00;;;;;;;;;;5060184;28;20096;-83
2024/01/16 06:38:06;;;;;;;0.00;0.00;;;;;;;;;;5055161;28;21463;-83
2024/01/16 06:43:32;;;;;;;0.00;0.00;;;;;;;;;;5116123;22;20098;-82
2024/01/16 06:46:01;;;;;;;0.00;0.00;;;;;;;;;;5070741;28;20044;-83
2024/01/16 06:52:14;;;;;;;0.00;0.00;;;;;;;;;;4963664;28;20054;-86
2024/01/16 06:54:43;;;;;;;0.00;0.00;;;;;;;;;;4959130;28;20038;-83
2024/01/16 06:57:08;;;;;;;0.00;0.00;;;;;;;;;;5063861;28;20044;-79
2024/01/16 06:59:34;;;;;;;0.00;0.00;;;;;;;;;;5063887;28;20080;-83
2024/01/16 07:01:59;;;;;;;0.00;0.00;;;;;;;;;;5077251;28;20092;-83
2024/01/16 07:04:28;;;;;;;0.00;0.00;;;;;;;;;;5084143;28;20036;-85
2024/01/16 07:06:54;;;;;;;0.00;0.00;;;;;;;;;;5098288;28;20028;-85
2024/01/16 07:09:35;;;;;;;0.00;0.00;;;;;;;;;;5076679;28;20173;-82
2024/01/16 07:12:04;;;;;;;0.00;0.00;;;;;;;;;;5060457;28;21159;-83
2024/01/16 07:14:31;;;;;;;0.00;0.00;;;;;;;;;;5077902;28;20040;-84
2024/01/16 07:16:56;;;;;;;0.00;0.00;;;;;;;;;;5096610;28;20505;-83
2024/01/16 07:19:40;;;;;;;0.00;0.00;;;;;;;;;;5080099;28;20115;-86
2024/01/16 07:22:06;;;;;;;0.00;0.00;;;;;;;;;;5075145;28;20074;-82
2024/01/16 07:24:32;;;;;;;0.00;0.00;;;;;;;;;;5071719;28;20078;-81
2024/01/16 07:26:58;;;;;;;0.00;0.00;;;;;;;;;;5078900;28;20025;-84
2024/01/16 07:29:23;;;;;;;0.00;0.00;;;;;;;;;;5056118;28;20020;-84
2024/01/16 07:31:58;;;;;;;0.00;0.00;;;;;;;;;;5088556;28;20114;-86
2024/01/16 07:34:25;;;;;;;0.00;0.00;;;;;;;;;;5074002;28;20374;-85
2024/01/16 07:36:51;;;;;;;0.00;0.00;;;;;;;;;;5093251;28;20028;-79
2024/01/16 07:39:17;;;;;;;0.00;0.00;;;;;;;;;;5093886;28;20036;-85
2024/01/16 07:41:43;;;;;;;0.00;0.00;;;;;;;;;;5038563;28;20406;-84
2024/01/16 07:44:09;;;;;;;0.00;0.00;;;;;;;;;;5045425;28;20087;-84
2024/01/16 07:52:35;;;;;;;0.00;0.00;;;;;;;;;;5094475;22;20076;-83
2024/01/16 07:55:01;;;;;;;0.00;0.00;;;;;;;;;;5049522;28;20075;-85
2024/01/16 07:57:26;;;;;;;0.00;0.00;;;;;;;;;;5059010;28;20032;-86
2024/01/16 08:00:19;;;;;;;0.00;0.00;;;;;;;;;;5091621;28;20036;-84
2024/01/16 08:03:00;;;;;;;0.00;0.00;;;;;;;;;;5084844;28;20050;-83
2024/01/16 08:05:27;;;;;;;0.00;0.00;;;;;;;;;;5072519;28;20040;-83
2024/01/16 08:07:53;;;;;;;0.00;0.00;;;;;;;;;;5047912;28;20040;-86
2024/01/16 08:10:28;;;;;;;0.00;0.00;;;;;;;;;;5057387;28;20127;-83
2024/01/16 08:12:54;;;;;;;0.00;0.00;;;;;;;;;;5054716;28;20036;-84
2024/01/16 08:15:28;;;;;;;0.00;0.00;;;;;;;;;;5022175;28;20149;-84
2024/01/16 08:17:54;;;;;;;0.00;0.00;;;;;;;;;;5070991;28;20089;-84
2024/01/16 08:20:28;;;;;;;0.00;0.00;;;;;;;;;;5070766;28;20032;-85
2024/01/16 08:22:54;;;;;;;0.00;0.00;;;;;;;;;;5094886;28;20172;-87
2024/01/16 08:25:20;;;;;;;0.00;0.00;;;;;;;;;;5070592;28;20488;-85
2024/01/16 08:27:45;;;;;;;0.00;0.00;;;;;;;;;;5081747;28;20047;-82
2024/01/16 08:30:12;;;;;;;0.00;0.00;;;;;;;;;;5089135;28;20089;-83
2024/01/16 08:32:38;;;;;;;0.00;0.00;;;;;;;;;;5060011;28;20073;-83
2024/01/16 08:35:10;;;;;;;0.00;0.00;;;;;;;;;;5063438;28;20024;-82
2024/01/16 08:37:36;;;;;;;0.00;0.00;;;;;;;;;;5039084;28;20083;-84
2024/01/16 08:40:03;;;;;;;0.00;0.00;;;;;;;;;;5031961;28;20123;-82
2024/01/16 08:42:32;;;;;;;0.00;0.00;;;;;;;;;;5105405;28;20450;-84
2024/01/16 08:45:21;;;;;;;0.00;0.00;;;;;;;;;;5086869;28;20047;-83
2024/01/16 08:47:46;;;;;;;0.00;0.00;;;;;;;;;;5076514;28;20186;-82
2024/01/16 08:50:12;;;;;;;0.00;0.00;;;;;;;;;;5089045;28;20164;-83
2024/01/16 08:52:44;;;;;;;0.00;0.00;;;;;;;;;;5083542;28;20519;-84
2024/01/16 08:55:09;;;;;;;0.00;0.00;;;;;;;;;;5068734;28;20067;-82
2024/01/16 08:57:36;;;;;;;0.00;0.00;;;;;;;;;;5087782;28;20051;-82
2024/01/16 09:00:04;;;;;;;0.00;0.00;;;;;;;;;;5079618;28;20054;-82
2024/01/16 09:02:49;;;;;;;0.00;0.00;;;;;;;;;;5081857;28;20037;-84
2024/01/16 09:05:15;;;;;;;0.00;0.00;;;;;;;;;;5041704;22;20060;-83
2024/01/16 09:07:41;;;;;;;0.00;0.00;;;;;;;;;;5044796;28;20630;-84
2024/01/16 09:10:07;;;;;;;0.00;0.00;;;;;;;;;;5040972;28;20029;-81
2024/01/16 09:12:33;;;;;;;0.00;0.00;;;;;;;;;;5028335;28;20387;-87
2024/01/16 09:14:59;;;;;;;0.00;0.00;;;;;;;;;;4997627;28;20052;-85
2024/01/16 09:17:35;;;;;;;0.00;0.00;;;;;;;;;;5044374;28;20083;-85
2024/01/16 09:20:01;;;;;;;0.00;0.00;;;;;;;;;;5011378;28;20052;-86
2024/01/16 09:22:27;;;;;;;0.00;0.00;;;;;;;;;;5013023;28;20034;-80
2024/01/16 09:24:52;;;;;;;0.00;0.00;;;;;;;;;;5027649;28;20045;-79
2024/01/16 09:27:18;;;;;;;0.00;0.00;;;;;;;;;;5031741;28;20064;-84
2024/01/16 09:29:43;;;;;;;0.00;0.00;;;;;;;;;;5016482;28;20038;-82
2024/01/16 09:32:09;;;;;;;0.00;0.00;;;;;;;;;;5026839;28;20030;-86
2024/01/16 09:34:44;;;;;;;0.35;0.00;;;;;;;;;;5049628;28;20068;-84
2024/01/16 09:37:09;;;;;;;0.00;0.00;;;;;;;;;;5035447;28;20072;-88
2024/01/16 09:39:53;;;;;;;0.00;0.00;;;;;;;;;;5050560;28;20379;-83
2024/01/16 09:42:19;;;;;;;0.00;0.00;;;;;;;;;;5026809;28;20474;-84
2024/01/16 09:44:46;;;;;;;0.00;0.00;;;;;;;;;;5030423;28;20045;-84
2024/01/16 09:47:21;;;;;;;0.00;0.00;;;;;;;;;;5018760;28;20041;-84
2024/01/16 09:55:54;;;;;;;0.00;0.00;;;;;;;;;;4909551;28;20039;-82
2024/01/16 09:58:20;;;;;;;0.00;0.00;;;;;;;;;;4986358;28;20045;-79
2024/01/16 10:01:06;;;;;;;0.00;0.00;;;;;;;;;;4997313;28;20418;-84
2024/01/16 10:03:37;;;;;;;0.00;0.00;;;;;;;;;;5003047;28;20444;-79
2024/01/16 10:06:06;;;;;;;0.00;0.00;;;;;;;;;;5020862;28;20117;-78
2024/01/16 10:08:35;;;;;;;0.00;0.00;;;;;;;;;;5030111;28;20029;-81
2024/01/16 10:14:46;;;;;;;0.00;0.00;;;;;;;;;;5007377;28;20045;-80
2024/01/16 10:17:17;;;;;;;0.00;0.00;;;;;;;;;;4979362;28;20092;-81
2024/01/16 10:20:43;;;;;;;;;;;;;;;;;;;;;
2024/01/16 10:23:12;;;;;;;0.00;0.00;;;;;;;;;;5029151;28;20044;-84
2024/01/16 10:25:37;;;;;;;0.00;0.00;;;;;;;;;;4985504;28;20034;-84
2024/01/16 10:28:08;;;;;;;0.00;0.00;;;;;;;;;;4993868;28;20037;-86
2024/01/16 10:30:36;;;;;;;0.00;0.00;;;;;;;;;;5000312;28;20033;-84
2024/01/16 10:36:41;;;;;;;0.00;0.00;;;;;;;;;;4954322;29;20027;-81
2024/01/16 10:39:10;;;;;;;0.00;0.00;;;;;;;;;;4992597;28;20098;-83
2024/01/16 10:41:37;;;;;;;0.00;0.00;;;;;;;;;;4976361;28;20100;-81
2024/01/16 10:44:21;;;;;;;0.00;0.00;;;;;;;;;;5022738;28;20085;-84
2024/01/16 10:46:57;;;;;;;;;;;;;;;;;;;;;
2024/01/16 10:49:51;;;;;;;0.00;0.00;;;;;;;;;;4997271;28;20021;-81
2024/01/16 10:55:23;;;;;;;0.00;0.00;;;;;;;;;;5058460;23;20489;-83
2024/01/16 10:57:50;;;;;;;0.00;0.00;;;;;;;;;;5049512;28;20024;-83
2024/01/16 11:00:23;;;;;;;0.00;0.00;;;;;;;;;;5033728;28;20033;-83
2024/01/16 11:02:54;;;;;;;0.00;0.00;;;;;;;;;;5032423;28;20025;-83
2024/01/16 11:05:22;;;;;;;0.00;0.00;;;;;;;;;;5051207;28;20069;-82
2024/01/16 11:07:58;;;;;;;0.00;0.00;;;;;;;;;;5033862;28;20128;-84
2024/01/16 11:10:25;;;;;;;0.00;0.00;;;;;;;;;;5034274;28;20033;-85
2024/01/16 11:12:51;;;;;;;0.00;0.00;;;;;;;;;;5052654;28;20028;-84
2024/01/16 11:15:34;;;;;;;0.00;0.00;;;;;;;;;;5053418;28;20106;-85
2024/01/16 11:18:05;;;;;;;0.00;0.00;;;;;;;;;;5052908;28;20029;-83
2024/01/16 11:20:32;;;;;;;0.00;0.00;;;;;;;;;;5036038;28;20047;-86
2024/01/16 11:24:13;;;;;;;0.00;0.00;;;;;;;;;;5019205;28;20033;-86
2024/01/16 11:26:41;;;;;;;0.00;0.00;;;;;;;;;;5012994;28;20038;-85
2024/01/16 11:29:28;;;;;;;0.00;0.00;;;;;;;;;;5016542;28;20040;-87
2024/01/16 11:32:03;;;;;;;0.00;0.00;;;;;;;;;;5040436;28;20102;-86
2024/01/16 11:35:07;;;;;;;0.00;0.00;;;;;;;;;;5006559;28;20048;-84
2024/01/16 11:38:07;;;;;;;0.00;0.00;;;;;;;;;;5049968;28;20063;-83
2024/01/16 11:40:33;;;;;;;0.00;0.00;;;;;;;;;;5007066;28;20016;-82
2024/01/16 11:43:33;;;;;;;0.00;0.00;;;;;;;;;;5045264;28;20038;-85
2024/01/16 11:46:02;;;;;;;0.00;0.00;;;;;;;;;;5031942;28;20025;-81
2024/01/16 11:48:28;;;;;;;0.00;0.00;;;;;;;;;;5032416;28;20029;-82
2024/01/16 11:50:56;;;;;;;0.00;0.00;;;;;;;;;;5015233;28;20068;-82
2024/01/16 12:12:57;;;;;;;0.00;0.00;;;;;;;;;;5064290;22;20063;-85
2024/01/16 12:15:23;;;;;;;0.00;0.00;;;;;;;;;;5054550;28;20044;-84
2024/01/16 12:18:08;;;;;;;0.00;0.00;;;;;;;;;;5037198;28;20050;-82
2024/01/16 12:20:35;;;;;;;0.00;0.00;;;;;;;;;;5025297;28;20040;-84
2024/01/16 12:26:44;;;;;;;0.00;0.00;;;;;;;;;;5073379;28;20028;-82
2024/01/16 12:29:10;;;;;;;0.00;0.00;;;;;;;;;;5035079;28;20029;-81
2024/01/16 12:31:44;;;;;;;0.00;0.00;;;;;;;;;;5034826;28;20017;-85
2024/01/16 12:34:10;;;;;;;0.00;0.00;;;;;;;;;;5048609;28;20033;-85
2024/01/16 12:36:36;;;;;;;0.00;0.00;;;;;;;;;;5016593;28;20067;-84
2024/01/16 12:39:13;;;;;;;0.00;0.00;;;;;;;;;;5021928;28;20111;-85
2024/01/16 12:41:42;;;;;;;0.00;0.00;;;;;;;;;;5060881;28;20478;-84
2024/01/16 12:44:07;;;;;;;0.00;0.00;;;;;;;;;;5033508;28;20362;-84
2024/01/16 12:46:33;;;;;;;0.00;0.00;;;;;;;;;;5029354;28;20104;-84
2024/01/16 12:49:03;;;;;;;0.00;0.00;;;;;;;;;;5071666;28;20028;-83
2024/01/16 12:51:29;;;;;;;0.00;0.00;;;;;;;;;;5054358;28;20029;-85
2024/01/16 12:54:09;;;;;;;0.00;0.00;;;;;;;;;;5070840;28;20100;-84
2024/01/16 12:56:34;;;;;;;0.00;0.00;;;;;;;;;;5038677;28;20044;-84
2024/01/16 12:59:01;;;;;;;0.00;0.00;;;;;;;;;;5052584;28;20112;-85
2024/01/16 13:01:28;;;;;;;0.00;0.00;;;;;;;;;;5019729;28;20037;-84
2024/01/16 13:03:54;;;;;;;0.00;0.00;;;;;;;;;;5054174;28;20028;-84
2024/01/16 13:06:20;;;;;;;0.00;0.00;;;;;;;;;;5036182;28;20361;-84
2024/01/16 13:08:49;;;;;;;0.00;0.00;;;;;;;;;;5053431;28;20112;-84
2024/01/16 13:11:20;;;;;;;0.00;0.00;;;;;;;;;;5020776;28;20055;-84
2024/01/16 13:13:48;;;;;;;0.00;0.00;;;;;;;;;;5056476;28;20024;-84
2024/01/16 13:16:13;;;;;;;0.00;0.00;;;;;;;;;;5056841;28;20035;-82
2024/01/16 13:18:39;;;;;;;0.00;0.00;;;;;;;;;;5084642;28;20020;-84
2024/01/16 13:21:05;;;;;;;0.00;0.00;;;;;;;;;;5066871;28;20052;-84
2024/01/16 13:23:31;;;;;;;0.00;0.00;;;;;;;;;;5066617;28;20627;-84
2024/01/16 13:25:59;;;;;;;0.00;0.00;;;;;;;;;;5044248;28;20090;-84
2024/01/16 13:28:25;;;;;;;0.00;0.00;;;;;;;;;;5046278;28;20055;-83
2024/01/16 13:30:50;;;;;;;0.00;0.00;;;;;;;;;;5045374;28;20029;-84
2024/01/16 13:33:16;;;;;;;0.00;0.00;;;;;;;;;;5086412;28;20056;-85
2024/01/16 13:35:48;;;;;;;0.00;0.00;;;;;;;;;;5048766;28;20040;-85
2024/01/16 13:38:18;;;;;;;0.00;0.00;;;;;;;;;;5023597;28;20036;-85
2024/01/16 13:40:44;;;;;;;0.00;0.00;;;;;;;;;;5031758;28;20328;-83
2024/01/16 13:43:11;;;;;;;0.00;0.00;;;;;;;;;;5002667;28;20047;-83
2024/01/16 13:45:38;;;;;;;0.00;0.00;;;;;;;;;;5019364;28;20511;-83
2024/01/16 13:48:04;;;;;;;0.00;0.00;;;;;;;;;;5031747;28;20367;-84
2024/01/16 13:50:30;;;;;;;0.00;0.00;;;;;;;;;;5022817;28;20115;-84
2024/01/16 13:52:56;;;;;;;0.00;0.00;;;;;;;;;;5022648;28;20564;-84
2024/01/16 13:55:22;;;;;;;0.00;0.00;;;;;;;;;;5022435;28;20033;-84
2024/01/16 13:57:47;;;;;;;0.00;0.00;;;;;;;;;;5038691;28;20025;-84
2024/01/16 14:00:15;;;;;;;0.00;0.00;;;;;;;;;;5006154;28;20028;-83
2024/01/16 14:02:52;;;;;;;0.00;0.00;;;;;;;;;;5056525;28;20496;-84
2024/01/16 14:05:18;;;;;;;0.00;0.00;;;;;;;;;;5039039;28;20421;-83
2024/01/16 14:07:48;;;;;;;0.00;0.00;;;;;;;;;;5056571;28;20029;-84
2024/01/16 14:10:15;;;;;;;0.00;0.00;;;;;;;;;;5022059;28;20068;-83
2024/01/16 14:12:44;;;;;;;0.00;0.00;;;;;;;;;;5038578;28;20063;-84
2024/01/16 14:15:22;;;;;;;0.00;0.00;;;;;;;;;;5007036;28;20041;-83
2024/01/16 14:17:48;;;;;;;0.00;0.00;;;;;;;;;;5040017;28;20029;-85
2024/01/16 14:20:14;;;;;;;0.00;0.00;;;;;;;;;;5022726;28;20412;-82
2024/01/16 14:22:40;;;;;;;0.00;0.00;;;;;;;;;;5022464;28;20123;-82
2024/01/16 14:25:10;;;;;;;0.00;0.00;;;;;;;;;;5022522;28;20120;-84
2024/01/16 14:27:38;;;;;;;0.00;0.00;;;;;;;;;;5039487;28;20122;-82
2024/01/16 14:30:07;;;;;;;0.00;0.00;;;;;;;;;;5038542;28;20025;-81
2024/01/16 14:32:33;;;;;;;0.00;0.00;;;;;;;;;;5039146;28;20112;-82
2024/01/16 14:34:58;;;;;;;0.00;0.00;;;;;;;;;;5038779;28;20115;-82
2024/01/16 14:37:24;;;;;;;0.00;0.00;;;;;;;;;;5021840;28;20041;-80
2024/01/16 14:39:49;;;;;;;0.00;0.00;;;;;;;;;;5021970;28;20036;-85
2024/01/16 14:42:15;;;;;;;0.00;0.00;;;;;;;;;;5024580;28;20039;-84
2024/01/16 14:44:40;;;;;;;0.00;0.00;;;;;;;;;;5025430;28;20043;-84
2024/01/16 14:47:06;;;;;;;0.00;0.00;;;;;;;;;;5025042;28;20029;-84
2024/01/16 14:49:32;;;;;;;0.00;0.00;;;;;;;;;;5025424;28;20064;-85
2024/01/16 14:51:59;;;;;;;0.00;0.00;;;;;;;;;;5058310;28;20374;-83
2024/01/16 14:54:24;;;;;;;0.00;0.00;;;;;;;;;;5041757;28;22350;-84
2024/01/16 14:56:50;;;;;;;0.00;0.00;;;;;;;;;;5057535;28;20111;-84
2024/01/16 14:59:15;;;;;;;0.00;0.00;;;;;;;;;;5040543;28;20051;-83
2024/01/16 15:01:41;;;;;;;0.00;0.00;;;;;;;;;;5057893;28;20123;-83
2024/01/16 15:04:07;;;;;;;0.20;0.00;;;;;;;;;;5063589;28;20024;-84
2024/01/16 15:06:33;;;;;;;0.00;0.00;;;;;;;;;;5084282;28;20024;-84
2024/01/16 15:08:59;;;;;;;0.00;0.00;;;;;;;;;;5064050;28;20028;-84
2024/01/16 15:11:24;;;;;;;0.00;0.00;;;;;;;;;;5060862;28;20045;-85
2024/01/16 15:13:50;;;;;;;0.00;0.00;;;;;;;;;;5059241;28;20149;-85
2024/01/16 15:16:16;;;;;;;0.00;0.00;;;;;;;;;;5073457;28;20397;-85
2024/01/16 15:18:43;;;;;;;0.00;0.00;;;;;;;;;;5037556;28;20036;-85
2024/01/16 15:21:08;;;;;;;0.00;0.00;;;;;;;;;;5041157;28;20043;-85
2024/01/16 15:23:34;;;;;;;0.00;0.00;;;;;;;;;;5057302;28;20028;-84
2024/01/16 15:26:03;;;;;;;0.00;0.00;;;;;;;;;;5056463;28;20401;-85
2024/01/16 15:28:30;;;;;;;0.00;0.00;;;;;;;;;;5041053;28;20373;-85
2024/01/16 15:30:55;;;;;;;0.00;0.00;;;;;;;;;;5040800;28;20135;-85
2024/01/16 15:33:21;;;;;;;0.00;0.00;;;;;;;;;;5057806;28;20528;-85
2024/01/16 15:35:47;;;;;;;0.00;0.00;;;;;;;;;;5057118;28;20461;-84
2024/01/16 15:38:12;;;;;;;0.00;0.00;;;;;;;;;;5024052;28;20032;-85
2024/01/16 15:40:38;;;;;;;0.00;0.00;;;;;;;;;;5049652;28;20061;-85
2024/01/16 15:43:03;;;;;;;0.00;0.00;;;;;;;;;;5020482;28;20033;-85
2024/01/16 15:45:31;;;;;;;0.00;0.00;;;;;;;;;;5021197;28;20144;-84
2024/01/16 15:47:56;;;;;;;0.00;0.00;;;;;;;;;;5003736;28;20128;-85
2024/01/16 15:50:22;;;;;;;0.00;0.00;;;;;;;;;;5037110;28;20033;-85
2024/01/16 15:52:49;;;;;;;0.00;0.00;;;;;;;;;;5004473;28;20037;-84
2024/01/16 15:55:14;;;;;;;0.00;0.00;;;;;;;;;;5036814;28;20356;-86